createdAt,value
2022-11-25T00:02:16.643Z,22.92
2022-11-25T00:04:43.289Z,25.88
2022-11-25T00:07:09.874Z,23.40
2022-11-25T00:09:36.381Z,21.88
2022-11-25T00:12:03.055Z,24.23
2022-11-25T00:14:29.506Z,28.05
2022-11-25T00:16:56.133Z,23.55
2022-11-25T00:19:22.703Z,27.35
2022-11-25T00:21:49.230Z,25.55
2022-11-25T00:24:17.080Z,23.08
2022-11-25T00:26:44.450Z,24.17
2022-11-25T00:29:12.520Z,23.80
2022-11-25T00:31:40.519Z,25.42
2022-11-25T00:34:10.262Z,22.42
2022-11-25T00:36:37.896Z,23.33
2022-11-25T00:39:13.292Z,21.98
2022-11-25T00:41:58.607Z,22.38
2022-11-25T00:44:38.067Z,23.38
2022-11-25T00:47:08.027Z,21.83
2022-11-25T00:49:35.024Z,25.92
2022-11-25T00:52:01.836Z,23.15
2022-11-25T00:54:28.802Z,23.55
2022-11-25T00:56:55.319Z,20.60
2022-11-25T00:59:21.919Z,24.15
2022-11-25T01:01:48.566Z,24.05
2022-11-25T01:04:15.826Z,26.52
2022-11-25T01:06:43.255Z,27.45
2022-11-25T01:09:11.356Z,24.25
2022-11-25T01:11:38.660Z,25.08
2022-11-25T01:14:05.492Z,24.27
2022-11-25T01:16:32.364Z,25.30
2022-11-25T01:19:00.087Z,24.08
2022-11-25T01:21:29.218Z,23.77
2022-11-25T01:23:56.134Z,28.60
2022-11-25T01:26:24.675Z,23.02
2022-11-25T01:28:59.727Z,25.98
2022-11-25T01:31:29.393Z,28.52
2022-11-25T01:34:03.168Z,26.77
2022-11-25T01:36:30.367Z,25.92
2022-11-25T01:38:59.234Z,28.30
2022-11-25T01:41:28.891Z,28.05
2022-11-25T01:44:21.436Z,25.83
2022-11-25T01:46:51.305Z,24.98
2022-11-25T01:49:24.841Z,26.42
2022-11-25T01:52:00.050Z,28.38
2022-11-25T01:54:29.702Z,26.80
2022-11-25T01:57:08.838Z,28.15
2022-11-25T01:59:40.036Z,28.95
2022-11-25T02:02:07.315Z,26.65
2022-11-25T02:04:38.637Z,27.60
2022-11-25T02:07:13.635Z,29.45
2022-11-25T02:09:44.304Z,31.77
2022-11-25T02:12:11.631Z,28.35
2022-11-25T02:14:39.342Z,30.63
2022-11-25T02:17:06.197Z,25.23
2022-11-25T02:19:52.630Z,31.42
2022-11-25T02:22:29.319Z,26.27
2022-11-25T02:25:01.352Z,26.92
2022-11-25T02:27:28.445Z,26.17
2022-11-25T02:29:55.040Z,27.50
2022-11-25T02:32:23.237Z,25.48
2022-11-25T02:34:50.153Z,30.17
2022-11-25T02:37:18.747Z,26.88
2022-11-25T02:39:47.404Z,27.92
2022-11-25T02:42:15.967Z,24.40
2022-11-25T02:44:48.339Z,28.17
2022-11-25T02:47:15.319Z,32.53
2022-11-25T02:49:41.901Z,28.40
2022-11-25T02:52:09.585Z,27.30
2022-11-25T02:54:36.363Z,30.38
2022-11-25T02:57:03.016Z,26.80
2022-11-25T02:59:32.476Z,25.67
2022-11-25T03:01:59.065Z,26.75
2022-11-25T03:04:27.263Z,25.60
2022-11-25T03:06:53.786Z,29.15
2022-11-25T03:09:20.284Z,26.85
2022-11-25T03:12:05.512Z,28.38
2022-11-25T03:14:32.050Z,26.08
2022-11-25T03:16:58.600Z,26.85
2022-11-25T03:19:26.572Z,27.20
2022-11-25T03:21:53.094Z,24.77
2022-11-25T03:24:19.638Z,30.90
2022-11-25T03:26:48.544Z,29.55
2022-11-25T03:29:15.146Z,24.33
2022-11-25T03:31:41.921Z,27.63
2022-11-25T03:34:11.023Z,25.13
2022-11-25T03:36:37.664Z,23.08
2022-11-25T03:39:04.236Z,24.35
2022-11-25T03:41:30.781Z,27.65
2022-11-25T03:43:57.520Z,27.27
2022-11-25T03:46:24.194Z,24.73
2022-11-25T03:48:52.542Z,28.95
2022-11-25T03:51:19.250Z,26.13
2022-11-25T03:53:45.887Z,25.85
2022-11-25T03:56:14.291Z,25.50
2022-11-25T03:58:41.073Z,25.42
2022-11-25T04:01:10.051Z,25.63
2022-11-25T04:03:36.702Z,23.13
2022-11-25T04:06:04.006Z,22.65
2022-11-25T04:08:31.187Z,23.35
2022-11-25T04:10:58.742Z,25.42
2022-11-25T04:13:29.466Z,24.25
2022-11-25T04:15:57.055Z,27.17
2022-11-25T04:18:23.631Z,26.25
2022-11-25T04:20:54.385Z,25.85
2022-11-25T04:23:21.480Z,24.65
2022-11-25T04:26:01.518Z,21.77
2022-11-25T04:28:34.311Z,23.98
2022-11-25T04:31:06.618Z,24.85
2022-11-25T04:36:01.760Z,21.77
2022-11-25T04:38:28.437Z,21.00
2022-11-25T04:40:57.996Z,24.75
2022-11-25T04:43:24.701Z,25.80
2022-11-25T04:46:13.447Z,23.33
2022-11-25T04:48:40.660Z,25.40
2022-11-25T04:51:07.323Z,25.00
2022-11-25T04:53:34.028Z,22.75
2022-11-25T04:56:00.596Z,22.63
2022-11-25T04:58:48.540Z,23.67
2022-11-25T05:01:15.867Z,24.05
2022-11-25T05:03:54.476Z,22.08
2022-11-25T05:06:24.141Z,23.45
2022-11-25T05:08:51.679Z,24.27
2022-11-25T05:11:19.019Z,24.42
2022-11-25T05:13:45.728Z,21.35
2022-11-25T05:16:12.427Z,21.95
2022-11-25T05:18:38.987Z,21.17
2022-11-25T05:21:06.135Z,22.35
2022-11-25T05:23:36.189Z,21.83
2022-11-25T05:26:04.275Z,20.95
2022-11-25T05:28:37.850Z,23.58
2022-11-25T05:31:04.624Z,23.55
2022-11-25T05:33:31.401Z,21.27
2022-11-25T05:36:01.065Z,19.70
2022-11-25T05:38:34.944Z,23.75
2022-11-25T05:41:05.105Z,24.85
2022-11-25T05:43:32.333Z,29.90
2022-11-25T05:46:00.420Z,26.38
2022-11-25T05:48:27.201Z,25.63
2022-11-25T05:50:53.761Z,24.10
2022-11-25T05:53:22.905Z,24.58
2022-11-25T05:55:56.526Z,25.15
2022-11-25T05:58:49.563Z,21.95
2022-11-25T06:01:17.129Z,22.50
2022-11-25T06:03:45.307Z,21.80
2022-11-25T06:06:11.869Z,20.58
2022-11-25T06:08:39.328Z,23.90
2022-11-25T06:11:15.359Z,25.10
2022-11-25T06:13:44.633Z,21.50
2022-11-25T06:16:14.413Z,23.58
2022-11-25T06:18:41.339Z,23.35
2022-11-25T06:21:09.666Z,24.65
2022-11-25T06:23:38.184Z,23.33
2022-11-25T06:26:14.535Z,22.35
2022-11-25T06:28:41.254Z,21.75
2022-11-25T06:31:16.734Z,21.80
2022-11-25T06:33:54.520Z,20.83
2022-11-25T06:36:22.590Z,19.55
2022-11-25T06:38:51.958Z,20.00
2022-11-25T06:41:19.307Z,21.30
2022-11-25T06:43:45.983Z,21.40
2022-11-25T06:46:17.324Z,19.73
2022-11-25T06:48:46.376Z,22.48
2022-11-25T06:51:15.670Z,21.60
2022-11-25T06:53:42.579Z,21.83
2022-11-25T06:56:16.486Z,20.67
2022-11-25T06:58:44.396Z,22.90
2022-11-25T07:01:12.466Z,22.23
2022-11-25T07:03:39.403Z,23.80
2022-11-25T07:06:08.480Z,26.48
2022-11-25T07:08:37.652Z,24.10
2022-11-25T10:31:35.996Z,16.70
2022-11-25T10:34:18.232Z,22.35
2022-11-25T10:36:45.943Z,20.70
2022-11-25T10:39:19.571Z,20.45
2022-11-25T10:41:55.282Z,16.40
2022-11-25T10:44:33.728Z,19.35
2022-11-25T10:47:22.159Z,20.40
2022-11-25T10:50:03.600Z,18.20
2022-11-25T10:52:36.087Z,19.00
2022-11-25T10:55:10.316Z,16.10
2022-11-25T10:57:37.198Z,19.27
2022-11-25T11:00:56.894Z,17.70
2022-11-25T11:03:31.999Z,19.98
2022-11-25T11:06:04.652Z,24.45
2022-11-25T11:08:45.351Z,30.95
2022-11-25T11:11:23.299Z,29.25
2022-11-25T11:14:00.764Z,23.13
2022-11-25T11:20:07.096Z,19.15
2022-11-25T11:22:35.440Z,24.05
2022-11-25T11:25:08.370Z,22.10
2022-11-25T11:32:05.305Z,24.15
2022-11-25T11:35:07.217Z,24.55
2022-11-25T11:37:37.472Z,19.90
2022-11-25T11:40:17.649Z,21.50
2022-11-25T11:43:02.300Z,20.15
2022-11-25T12:23:54.788Z,16.70
2022-11-25T12:34:53.084Z,15.10
2022-11-25T12:37:43.653Z,18.10
2022-11-25T12:40:13.264Z,17.83
2022-11-25T12:44:56.924Z,18.38
2022-11-25T12:48:31.717Z,22.25
2022-11-25T12:54:13.838Z,23.80
2022-11-25T12:57:11.345Z,21.25
2022-11-25T13:00:40.667Z,15.70
2022-11-25T13:11:48.811Z,16.80
2022-11-25T13:14:43.217Z,24.70
2022-11-25T13:19:41.106Z,21.25
2022-11-25T13:22:29.537Z,18.65
2022-11-25T13:24:59.036Z,15.82
2022-11-25T13:27:36.119Z,15.63
2022-11-25T13:30:03.196Z,15.43
2022-11-25T13:32:32.408Z,18.73
2022-11-25T13:35:21.484Z,16.98
2022-11-25T13:37:50.088Z,17.52
2022-11-25T13:40:21.687Z,16.08
2022-11-25T13:42:48.975Z,14.98
2022-11-25T13:45:37.201Z,14.38
2022-11-25T13:48:22.552Z,14.55
2022-11-25T13:53:37.913Z,17.15
2022-11-25T13:56:23.365Z,14.95
2022-11-25T13:59:09.782Z,18.58
2022-11-25T14:01:37.283Z,12.90
2022-11-25T14:04:10.792Z,18.67
2022-11-25T14:07:03.036Z,16.10
2022-11-25T14:09:59.742Z,14.07
2022-11-25T14:12:50.773Z,13.70
2022-11-25T14:15:30.311Z,16.45
2022-11-25T14:18:21.944Z,15.10
2022-11-25T14:21:35.896Z,15.30
2022-11-25T14:24:21.030Z,13.30
2022-11-25T14:26:51.706Z,16.58
2022-11-25T14:29:50.368Z,17.85
2022-11-25T14:32:23.282Z,14.68
2022-11-25T14:34:58.077Z,16.02
2022-11-25T14:37:39.576Z,17.08
2022-11-25T14:40:06.142Z,15.35
2022-11-25T14:42:36.932Z,16.90
2022-11-25T14:45:19.039Z,15.32
2022-11-25T14:47:45.913Z,16.42
2022-11-25T14:53:06.271Z,14.40
2022-11-25T14:55:33.098Z,16.23
2022-11-25T14:57:59.682Z,15.13
2022-11-25T15:00:26.212Z,16.20
2022-11-25T15:03:03.444Z,14.98
2022-11-25T15:05:38.622Z,16.15
2022-11-25T15:08:14.462Z,15.85
2022-11-25T15:10:57.370Z,14.70
2022-11-25T15:13:41.557Z,17.00
2022-11-25T15:16:12.945Z,15.80
2022-11-25T15:18:45.848Z,18.67
2022-11-25T15:21:15.052Z,17.20
2022-11-25T15:23:41.706Z,18.17
2022-11-25T15:26:26.500Z,15.45
2022-11-25T15:28:58.106Z,15.70
2022-11-25T15:31:33.985Z,18.23
2022-11-25T15:34:03.674Z,19.63
2022-11-25T15:36:30.559Z,18.25
2022-11-25T15:39:19.266Z,19.33
2022-11-25T15:41:56.136Z,19.10
2022-11-25T15:44:29.493Z,17.27
2022-11-25T15:47:05.694Z,18.17
2022-11-25T15:49:33.901Z,17.67
2022-11-25T15:52:29.701Z,18.33
2022-11-25T15:55:03.092Z,18.65
2022-11-25T15:57:33.110Z,16.27
2022-11-25T16:00:01.726Z,14.88
2022-11-25T16:02:39.521Z,17.40
2022-11-25T16:05:14.723Z,17.30
2022-11-25T16:07:57.637Z,16.17
2022-11-25T16:10:48.955Z,18.38
2022-11-25T16:13:22.580Z,22.05
2022-11-25T16:21:18.522Z,22.17
2022-11-25T16:23:51.602Z,19.85
2022-11-25T16:26:27.689Z,18.90
2022-11-25T16:28:57.490Z,18.00
2022-11-25T16:31:24.511Z,19.15
2022-11-25T16:33:55.350Z,24.35
2022-11-25T16:36:21.947Z,20.40
2022-11-25T16:38:53.270Z,25.00
2022-11-25T16:41:23.639Z,23.95
2022-11-25T16:43:50.150Z,26.27
2022-11-25T16:46:18.362Z,30.80
2022-11-25T16:48:46.044Z,24.13
2022-11-25T16:51:24.658Z,24.25
2022-11-25T16:53:51.578Z,25.30
2022-11-25T16:56:24.615Z,30.50
2022-11-25T16:58:51.362Z,28.88
2022-11-25T17:01:19.594Z,29.50
2022-11-25T17:03:46.184Z,33.72
2022-11-25T17:06:22.193Z,35.92
2022-11-25T17:08:49.640Z,35.83
2022-11-25T17:11:35.271Z,39.40
2022-11-25T17:14:07.055Z,34.00
2022-11-25T17:16:33.772Z,34.00
2022-11-25T17:19:00.700Z,32.67
2022-11-25T17:21:28.719Z,34.42
2022-11-25T17:23:59.925Z,34.67
2022-11-25T17:26:35.749Z,31.88
2022-11-25T17:29:05.165Z,33.42
2022-11-25T17:31:33.157Z,36.45
2022-11-25T17:34:00.088Z,31.48
2022-11-25T17:36:27.168Z,34.25
2022-11-25T17:38:53.798Z,32.95
2022-11-25T17:49:46.692Z,29.88
2022-11-25T17:52:13.138Z,31.23
2022-11-25T17:54:40.319Z,31.13
2022-11-25T17:57:11.302Z,34.42
2022-11-25T17:59:37.815Z,31.33
2022-11-25T18:02:16.597Z,29.52
2022-11-25T18:04:43.106Z,31.63
2022-11-25T18:07:10.748Z,30.98
2022-11-25T18:09:37.617Z,28.25
2022-11-25T18:12:12.859Z,33.80
2022-11-25T18:14:40.905Z,29.85
2022-11-25T18:17:08.514Z,37.30
2022-11-25T18:19:35.762Z,32.35
2022-11-25T18:22:17.396Z,38.05
2022-11-25T18:29:41.883Z,29.83
2022-11-25T18:32:10.002Z,34.83
2022-11-25T18:34:36.927Z,35.65
2022-11-25T18:37:04.485Z,30.08
2022-11-25T18:39:30.973Z,38.17
2022-11-25T18:41:59.909Z,36.30
2022-11-25T18:44:31.415Z,30.73
2022-11-25T18:47:05.793Z,31.15
2022-11-25T18:49:32.241Z,32.97
2022-11-25T18:51:58.683Z,30.05
2022-11-25T18:54:25.185Z,35.83
2022-11-25T18:56:52.646Z,36.55
2022-11-25T18:59:26.760Z,28.50
2022-11-25T19:04:20.523Z,32.30
2022-11-25T19:06:47.038Z,35.30
2022-11-25T19:09:13.776Z,32.67
2022-11-25T19:11:46.153Z,35.55
2022-11-25T19:14:26.668Z,29.65
2022-11-25T19:16:53.941Z,32.35
2022-11-25T19:19:20.558Z,38.05
2022-11-25T19:21:47.165Z,35.65
2022-11-25T19:24:16.444Z,35.00
2022-11-25T19:26:51.376Z,34.67
2022-11-25T19:29:30.879Z,30.30
2022-11-25T19:31:59.228Z,31.60
2022-11-25T19:34:32.497Z,37.78
2022-11-25T19:36:59.023Z,29.17
2022-11-25T19:39:26.577Z,37.08
2022-11-25T19:41:54.322Z,36.65
2022-11-25T19:44:20.892Z,32.38
2022-11-25T19:47:14.271Z,38.05
2022-11-25T19:49:36.692Z,41.85
2022-11-25T19:52:03.397Z,41.85
2022-11-25T19:54:29.956Z,41.70
2022-11-25T19:56:56.566Z,38.47
2022-11-25T19:59:23.259Z,35.88
2022-11-25T20:01:50.233Z,37.28
2022-11-25T20:04:20.764Z,37.00
2022-11-25T20:06:49.087Z,43.38
2022-11-25T20:09:15.829Z,38.53
2022-11-25T20:11:43.290Z,38.42
2022-11-25T20:14:10.006Z,37.67
2022-11-25T20:16:40.395Z,34.53
2022-11-25T20:19:14.122Z,39.20
2022-11-25T20:21:41.036Z,31.23
2022-11-25T20:24:18.709Z,37.65
2022-11-25T20:26:48.442Z,37.22
2022-11-25T20:29:22.668Z,35.17
2022-11-25T20:31:54.063Z,32.95
2022-11-25T20:34:20.644Z,34.67
2022-11-25T20:36:47.229Z,38.28
2022-11-25T20:39:19.290Z,36.50
2022-11-25T20:41:52.736Z,33.78
2022-11-25T20:44:20.402Z,37.97
2022-11-25T20:46:47.516Z,35.17
2022-11-25T20:49:27.629Z,38.95
2022-11-25T20:51:54.898Z,39.88
2022-11-25T20:54:24.517Z,36.40
2022-11-25T20:56:51.141Z,34.55
2022-11-25T20:59:23.286Z,37.17
2022-11-25T21:01:50.900Z,34.55
2022-11-25T21:04:18.311Z,33.85
2022-11-25T21:06:45.144Z,33.17
2022-11-25T21:09:21.808Z,38.58
2022-11-25T21:11:49.023Z,42.67
2022-11-25T21:14:17.898Z,34.20
2022-11-25T21:16:45.144Z,31.15
2022-11-25T21:19:12.256Z,36.03
2022-11-25T21:21:41.937Z,37.58
2022-11-25T21:24:31.195Z,35.58
2022-11-25T21:27:00.309Z,32.15
2022-11-25T21:29:28.153Z,31.25
2022-11-25T21:31:54.801Z,37.25
2022-11-25T21:34:21.548Z,34.03
2022-11-25T21:36:51.626Z,31.73
2022-11-25T21:39:27.964Z,40.28
2022-11-25T21:41:57.741Z,32.75
2022-11-25T21:44:34.974Z,36.30
2022-11-25T21:47:02.949Z,30.00
2022-11-25T21:49:29.487Z,35.25
2022-11-25T21:51:56.070Z,39.35
2022-11-25T21:54:22.789Z,33.85
2022-11-25T21:56:51.341Z,31.70
2022-11-25T21:59:20.066Z,36.45
2022-11-25T22:01:47.235Z,42.35
2022-11-25T22:04:16.024Z,32.38
2022-11-25T22:06:43.121Z,33.75
2022-11-25T22:09:10.386Z,37.47
2022-11-25T22:11:41.037Z,35.85
2022-11-25T22:14:18.021Z,34.25
2022-11-25T22:16:44.904Z,35.35
2022-11-25T22:19:22.690Z,35.15
2022-11-25T22:21:49.301Z,37.92
2022-11-25T22:24:17.829Z,34.60
2022-11-25T22:26:46.780Z,40.97
2022-11-25T22:29:15.259Z,32.53
2022-11-25T22:31:42.933Z,31.27
2022-11-25T22:34:23.003Z,36.25
2022-11-25T22:36:50.672Z,39.45
2022-11-25T22:39:18.804Z,39.25
2022-11-25T22:41:52.071Z,39.70
2022-11-25T22:44:43.214Z,34.40
2022-11-25T22:47:20.472Z,39.03
2022-11-25T22:49:48.204Z,41.03
2022-11-25T22:52:20.205Z,34.92
2022-11-25T22:54:47.177Z,39.95
2022-11-25T22:57:13.738Z,37.20
2022-11-25T22:59:40.445Z,36.50
2022-11-25T23:02:07.435Z,39.67
2022-11-25T23:04:34.223Z,40.72
2022-11-25T23:07:00.868Z,40.97
2022-11-25T23:09:28.269Z,35.08
2022-11-25T23:11:54.829Z,34.53
2022-11-25T23:14:21.431Z,33.55
2022-11-25T23:16:48.095Z,31.27
2022-11-25T23:19:16.841Z,31.20
2022-11-25T23:21:45.514Z,29.35
2022-11-25T23:24:15.661Z,32.97
2022-11-25T23:26:43.273Z,29.23
2022-11-25T23:29:09.898Z,33.83
2022-11-25T23:31:38.362Z,30.33
2022-11-25T23:34:06.944Z,33.33
2022-11-25T23:36:41.131Z,26.08
2022-11-25T23:39:18.338Z,31.02
2022-11-25T23:41:45.194Z,29.45
2022-11-25T23:44:16.280Z,28.73
2022-11-25T23:46:44.175Z,32.03
2022-11-25T23:49:44.131Z,28.23
2022-11-25T23:52:16.688Z,30.58
2022-11-25T23:54:46.531Z,28.75
2022-11-25T23:57:20.882Z,26.90
2022-11-25T23:59:48.345Z,26.92
